sensor_id;sensor_type;location;lat;lon;timestamp;pressure;altitude;pressure_sealevel;temperature;humidity
4528;BME280;62320;51.520;6.818;2022-09-16T00:01:47;100553.22;;;14.37;81.05
4528;BME280;62320;51.520;6.818;2022-09-16T00:06:49;100553.28;;;14.34;80.57
4528;BME280;62320;51.520;6.818;2022-09-16T00:11:50;100566.31;;;14.32;80.68
4528;BME280;62320;51.520;6.818;2022-09-16T00:16:51;100564.59;;;14.31;80.67
4528;BME280;62320;51.520;6.818;2022-09-16T00:21:53;100562.03;;;14.29;81.49
4528;BME280;62320;51.520;6.818;2022-09-16T00:26:54;100562.03;;;14.26;80.95
4528;BME280;62320;51.520;6.818;2022-09-16T00:31:55;100561.19;;;14.26;80.89
4528;BME280;62320;51.520;6.818;2022-09-16T00:36:57;100533.75;;;14.10;80.83
4528;BME280;62320;51.520;6.818;2022-09-16T00:41:58;100562.13;;;14.23;81.19
4528;BME280;62320;51.520;6.818;2022-09-16T00:46:59;100551.88;;;14.14;81.15
4528;BME280;62320;51.520;6.818;2022-09-16T00:52:04;100551.97;;;14.10;80.57
4528;BME280;62320;51.520;6.818;2022-09-16T00:57:07;100557.97;;;14.12;81.12
4528;BME280;62320;51.520;6.818;2022-09-16T01:02:15;100566.63;;;14.14;81.17
4528;BME280;62320;51.520;6.818;2022-09-16T01:07:23;100566.63;;;14.14;81.94
4528;BME280;62320;51.520;6.818;2022-09-16T01:12:26;100572.72;;;14.11;82.62
4528;BME280;62320;51.520;6.818;2022-09-16T01:17:53;100572.75;;;14.08;82.03
4528;BME280;62320;51.520;6.818;2022-09-16T01:39:46;100566.00;;;14.00;82.46
4528;BME280;62320;51.520;6.818;2022-09-16T01:55:40;100570.56;;;13.87;82.52
4528;BME280;62320;51.520;6.818;2022-09-16T02:00:44;100564.50;;;13.87;82.39
4528;BME280;62320;51.520;6.818;2022-09-16T02:05:57;100564.53;;;13.85;82.53
4528;BME280;62320;51.520;6.818;2022-09-16T02:11:02;100547.38;;;13.74;82.18
4528;BME280;62320;51.520;6.818;2022-09-16T02:16:39;100561.09;;;13.82;82.70
4528;BME280;62320;51.520;6.818;2022-09-16T02:21:40;100560.31;;;13.78;82.56
4528;BME280;62320;51.520;6.818;2022-09-16T02:26:51;100562.91;;;13.77;83.25
4528;BME280;62320;51.520;6.818;2022-09-16T02:31:58;100552.59;;;13.72;83.25
4528;BME280;62320;51.520;6.818;2022-09-16T02:37:08;100549.16;;;13.72;83.13
4528;BME280;62320;51.520;6.818;2022-09-16T02:42:12;100550.00;;;13.74;83.36
4528;BME280;62320;51.520;6.818;2022-09-16T02:47:36;100529.19;;;13.72;83.15
4528;BME280;62320;51.520;6.818;2022-09-16T02:52:56;100531.88;;;13.69;82.84
4528;BME280;62320;51.520;6.818;2022-09-16T02:58:00;100528.53;;;13.61;82.89
4528;BME280;62320;51.520;6.818;2022-09-16T03:03:01;100532.75;;;13.68;82.98
4528;BME280;62320;51.520;6.818;2022-09-16T03:08:03;100524.13;;;13.66;82.61
4528;BME280;62320;51.520;6.818;2022-09-16T03:13:11;100522.56;;;13.56;83.11
4528;BME280;62320;51.520;6.818;2022-09-16T03:18:31;100534.63;;;13.60;83.17
4528;BME280;62320;51.520;6.818;2022-09-16T03:23:42;100538.84;;;13.66;83.67
4528;BME280;62320;51.520;6.818;2022-09-16T03:34:35;100537.25;;;13.57;83.53
4528;BME280;62320;51.520;6.818;2022-09-16T03:39:38;100534.63;;;13.60;83.17
4528;BME280;62320;51.520;6.818;2022-09-16T03:44:40;100522.59;;;13.53;83.87
4528;BME280;62320;51.520;6.818;2022-09-16T03:49:41;100519.97;;;13.56;83.75
4528;BME280;62320;51.520;6.818;2022-09-16T03:54:43;100519.97;;;13.56;83.63
4528;BME280;62320;51.520;6.818;2022-09-16T03:59:44;100520.88;;;13.53;83.38
4528;BME280;62320;51.520;6.818;2022-09-16T04:04:46;100512.38;;;13.44;83.69
4528;BME280;62320;51.520;6.818;2022-09-16T04:09:47;100514.84;;;13.50;83.21
4528;BME280;62320;51.520;6.818;2022-09-16T04:14:49;100519.16;;;13.52;83.82
4528;BME280;62320;51.520;6.818;2022-09-16T04:19:50;100511.38;;;13.49;83.38
4528;BME280;62320;51.520;6.818;2022-09-16T04:24:53;100503.59;;;13.51;83.97
4528;BME280;62320;51.520;6.818;2022-09-16T04:29:54;100510.53;;;13.50;83.41
4528;BME280;62320;51.520;6.818;2022-09-16T04:34:56;100502.91;;;13.40;84.22
4528;BME280;62320;51.520;6.818;2022-09-16T04:39:58;100520.94;;;13.47;84.11
4528;BME280;62320;51.520;6.818;2022-09-16T04:45:05;100511.47;;;13.46;83.73
4528;BME280;62320;51.520;6.818;2022-09-16T04:50:07;100526.19;;;13.46;83.10
4528;BME280;62320;51.520;6.818;2022-09-16T04:55:08;100515.91;;;13.38;83.79
4528;BME280;62320;51.520;6.818;2022-09-16T05:00:10;100522.81;;;13.39;83.56
4528;BME280;62320;51.520;6.818;2022-09-16T05:05:12;100488.50;;;13.19;83.56
4528;BME280;62320;51.520;6.818;2022-09-16T05:10:14;100520.38;;;13.30;83.88
4528;BME280;62320;51.520;6.818;2022-09-16T05:15:15;100515.16;;;13.30;83.51
4528;BME280;62320;51.520;6.818;2022-09-16T05:20:17;100515.16;;;13.29;83.03
4528;BME280;62320;51.520;6.818;2022-09-16T05:25:18;100516.94;;;13.27;83.80
4528;BME280;62320;51.520;6.818;2022-09-16T05:30:19;100513.63;;;13.19;83.28
4528;BME280;62320;51.520;6.818;2022-09-16T05:35:27;100505.84;;;13.17;83.69
4528;BME280;62320;51.520;6.818;2022-09-16T05:40:28;100517.00;;;13.24;83.83
4528;BME280;62320;51.520;6.818;2022-09-16T05:45:30;100505.03;;;13.14;84.95
4528;BME280;62320;51.520;6.818;2022-09-16T05:50:32;100519.53;;;13.27;83.48
4528;BME280;62320;51.520;6.818;2022-09-16T05:55:34;100504.09;;;13.18;83.86
4528;BME280;62320;51.520;6.818;2022-09-16T06:00:35;100517.84;;;13.26;84.05
4528;BME280;62320;51.520;6.818;2022-09-16T06:05:37;100528.13;;;13.32;83.92
4528;BME280;62320;51.520;6.818;2022-09-16T06:10:45;100509.16;;;13.27;84.72
4528;BME280;62320;51.520;6.818;2022-09-16T06:15:50;100527.19;;;13.36;84.16
4528;BME280;62320;51.520;6.818;2022-09-16T06:20:52;100530.69;;;13.35;85.14
4528;BME280;62320;51.520;6.818;2022-09-16T06:26:01;100531.41;;;13.44;84.86
4528;BME280;62320;51.520;6.818;2022-09-16T06:31:10;100539.94;;;13.52;84.51
4528;BME280;62320;51.520;6.818;2022-09-16T06:36:14;100538.16;;;13.56;85.48
4528;BME280;62320;51.520;6.818;2022-09-16T06:41:18;100523.41;;;13.58;85.05
4528;BME280;62320;51.520;6.818;2022-09-16T06:46:22;100533.69;;;13.64;84.76
4528;BME280;62320;51.520;6.818;2022-09-16T06:51:26;100536.91;;;13.77;84.89
4528;BME280;62320;51.520;6.818;2022-09-16T06:56:29;100536.88;;;13.80;84.97
4528;BME280;62320;51.520;6.818;2022-09-16T07:01:31;100535.03;;;13.86;85.27
4528;BME280;62320;51.520;6.818;2022-09-16T07:06:33;100536.72;;;13.89;84.59
4528;BME280;62320;51.520;6.818;2022-09-16T07:11:55;100540.97;;;13.93;85.03
4528;BME280;62320;51.520;6.818;2022-09-16T07:16:57;100546.09;;;13.97;84.94
4528;BME280;62320;51.520;6.818;2022-09-16T07:21:59;100544.25;;;14.04;84.19
4528;BME280;62320;51.520;6.818;2022-09-16T07:27:00;100551.00;;;14.14;84.43
4528;BME280;62320;51.520;6.818;2022-09-16T07:32:01;100555.22;;;14.21;84.91
4528;BME280;62320;51.520;6.818;2022-09-16T07:37:03;100557.66;;;14.32;84.51
4528;BME280;62320;51.520;6.818;2022-09-16T07:42:04;100560.16;;;14.36;84.13
4528;BME280;62320;51.520;6.818;2022-09-16T07:47:06;100560.84;;;14.46;83.62
4528;BME280;62320;51.520;6.818;2022-09-16T07:52:07;100560.72;;;14.53;83.79
4528;BME280;62320;51.520;6.818;2022-09-16T07:57:09;100568.34;;;14.62;82.74
4528;BME280;62320;51.520;6.818;2022-09-16T08:02:10;100556.94;;;14.68;83.28
4528;BME280;62320;51.520;6.818;2022-09-16T08:07:12;100570.66;;;14.76;82.67
4528;BME280;62320;51.520;6.818;2022-09-16T08:12:14;100546.38;;;14.75;81.66
4528;BME280;62320;51.520;6.818;2022-09-16T08:17:15;100554.00;;;14.84;82.20
4528;BME280;62320;51.520;6.818;2022-09-16T08:22:16;100565.88;;;14.97;81.06
4528;BME280;62320;51.520;6.818;2022-09-16T08:27:18;100575.31;;;15.03;79.94
4528;BME280;62320;51.520;6.818;2022-09-16T08:32:19;100564.78;;;15.08;80.23
4528;BME280;62320;51.520;6.818;2022-09-16T08:37:21;100582.88;;;15.14;80.05
4528;BME280;62320;51.520;6.818;2022-09-16T08:42:27;100576.03;;;15.10;79.49
4528;BME280;62320;51.520;6.818;2022-09-16T08:47:59;100569.00;;;15.13;79.68
4528;BME280;62320;51.520;6.818;2022-09-16T08:53:09;100586.09;;;15.26;78.85
4528;BME280;62320;51.520;6.818;2022-09-16T08:58:16;100589.31;;;15.36;79.12
4528;BME280;62320;51.520;6.818;2022-09-16T09:03:36;100592.69;;;15.41;78.08
4528;BME280;62320;51.520;6.818;2022-09-16T09:24:42;100591.00;;;15.78;76.70
4528;BME280;62320;51.520;6.818;2022-09-16T09:40:47;100581.22;;;15.86;75.43
4528;BME280;62320;51.520;6.818;2022-09-16T09:50:58;100581.44;;;15.77;75.03
4528;BME280;62320;51.520;6.818;2022-09-16T09:56:27;100574.31;;;15.85;74.54
4528;BME280;62320;51.520;6.818;2022-09-16T10:01:29;100570.56;;;15.95;74.58
4528;BME280;62320;51.520;6.818;2022-09-16T10:06:33;100566.09;;;16.00;74.50
4528;BME280;62320;51.520;6.818;2022-09-16T10:11:45;100570.97;;;16.14;71.15
4528;BME280;62320;51.520;6.818;2022-09-16T10:16:49;100545.47;;;15.91;74.25
4528;BME280;62320;51.520;6.818;2022-09-16T10:21:55;100562.25;;;16.15;73.02
4528;BME280;62320;51.520;6.818;2022-09-16T10:26:58;100569.22;;;16.13;72.40
4528;BME280;62320;51.520;6.818;2022-09-16T10:32:05;100557.19;;;16.09;72.78
4528;BME280;62320;51.520;6.818;2022-09-16T10:42:18;100554.00;;;16.30;73.29
4528;BME280;62320;51.520;6.818;2022-09-16T10:47:23;100560.53;;;16.46;69.58
4528;BME280;62320;51.520;6.818;2022-09-16T10:52:31;100550.88;;;16.51;70.87
4528;BME280;62320;51.520;6.818;2022-09-16T10:57:32;100546.50;;;16.50;70.40
4528;BME280;62320;51.520;6.818;2022-09-16T11:18:48;100560.00;;;16.33;68.74
4528;BME280;62320;51.520;6.818;2022-09-16T11:29:43;100592.28;;;16.29;70.74
4528;BME280;62320;51.520;6.818;2022-09-16T11:35:21;100590.72;;;16.22;71.83
4528;BME280;62320;51.520;6.818;2022-09-16T11:45:45;100581.50;;;16.09;73.09
4528;BME280;62320;51.520;6.818;2022-09-16T11:51:10;100586.66;;;16.12;72.87
4528;BME280;62320;51.520;6.818;2022-09-16T11:56:18;100579.91;;;16.04;72.32
4528;BME280;62320;51.520;6.818;2022-09-16T12:01:48;100579.94;;;16.02;71.83
4528;BME280;62320;51.520;6.818;2022-09-16T12:07:19;100591.31;;;16.00;72.13
4528;BME280;62320;51.520;6.818;2022-09-16T12:12:32;100574.00;;;15.97;71.84
4528;BME280;62320;51.520;6.818;2022-09-16T12:17:38;100571.19;;;16.05;72.31
4528;BME280;62320;51.520;6.818;2022-09-16T12:22:51;100554.66;;;16.06;72.80
4528;BME280;62320;51.520;6.818;2022-09-16T12:28:04;100556.34;;;16.07;72.77
4528;BME280;62320;51.520;6.818;2022-09-16T12:33:23;100556.19;;;16.13;72.96
4528;BME280;62320;51.520;6.818;2022-09-16T12:38:26;100542.97;;;16.20;72.49
4528;BME280;62320;51.520;6.818;2022-09-16T12:59:36;100542.00;;;16.57;72.88
4528;BME280;62320;51.520;6.818;2022-09-16T13:04:49;100551.28;;;16.67;71.03
4528;BME280;62320;51.520;6.818;2022-09-16T13:10:28;100556.72;;;16.59;69.74
4528;BME280;62320;51.520;6.818;2022-09-16T13:15:56;100569.91;;;16.55;69.77
4528;BME280;62320;51.520;6.818;2022-09-16T13:21:00;100585.03;;;16.40;69.47
4528;BME280;62320;51.520;6.818;2022-09-16T13:26:07;100581.91;;;16.26;70.30
4528;BME280;62320;51.520;6.818;2022-09-16T13:46:42;100578.44;;;16.27;71.82
4528;BME280;62320;51.520;6.818;2022-09-16T13:51:45;100549.66;;;16.30;72.30
4528;BME280;62320;51.520;6.818;2022-09-16T14:02:18;100529.16;;;16.48;71.89
4528;BME280;62320;51.520;6.818;2022-09-16T14:07:34;100554.78;;;16.66;71.96
4528;BME280;62320;51.520;6.818;2022-09-16T14:17:54;100559.44;;;16.55;70.96
4528;BME280;62320;51.520;6.818;2022-09-16T14:23:01;100554.31;;;16.50;71.33
4528;BME280;62320;51.520;6.818;2022-09-16T14:28:17;100549.34;;;16.41;70.25
4528;BME280;62320;51.520;6.818;2022-09-16T14:33:25;100549.56;;;16.33;70.31
4528;BME280;62320;51.520;6.818;2022-09-16T14:38:33;100546.44;;;16.21;70.00
4528;BME280;62320;51.520;6.818;2022-09-16T14:43:46;100546.59;;;16.15;69.44
4528;BME280;62320;51.520;6.818;2022-09-16T14:48:48;100533.56;;;16.15;69.52
4528;BME280;62320;51.520;6.818;2022-09-16T14:53:58;100543.13;;;16.14;69.63
4528;BME280;62320;51.520;6.818;2022-09-16T14:59:13;100542.09;;;16.20;70.35
4528;BME280;62320;51.520;6.818;2022-09-16T15:04:23;100533.44;;;16.19;68.81
4528;BME280;62320;51.520;6.818;2022-09-16T15:14:36;100517.22;;;16.07;69.70
4528;BME280;62320;51.520;6.818;2022-09-16T15:19:40;100537.81;;;16.17;70.34
4528;BME280;62320;51.520;6.818;2022-09-16T15:24:42;100532.56;;;16.19;69.64
4528;BME280;62320;51.520;6.818;2022-09-16T15:29:47;100527.38;;;16.17;70.58
4528;BME280;62320;51.520;6.818;2022-09-16T15:35:10;100516.22;;;16.12;69.59
4528;BME280;62320;51.520;6.818;2022-09-16T15:45:20;100527.38;;;16.17;69.46
4528;BME280;62320;51.520;6.818;2022-09-16T15:50:23;100523.25;;;16.09;69.75
4528;BME280;62320;51.520;6.818;2022-09-16T15:55:43;100529.34;;;16.09;70.65
4528;BME280;62320;51.520;6.818;2022-09-16T16:05:58;100543.38;;;16.05;71.16
4528;BME280;62320;51.520;6.818;2022-09-16T16:11:12;100542.69;;;15.99;70.63
4528;BME280;62320;51.520;6.818;2022-09-16T16:16:15;100555.78;;;15.96;70.96
4528;BME280;62320;51.520;6.818;2022-09-16T16:21:17;100536.72;;;15.94;71.07
4528;BME280;62320;51.520;6.818;2022-09-16T16:26:18;100555.78;;;15.96;71.43
4528;BME280;62320;51.520;6.818;2022-09-16T16:31:20;100558.50;;;15.91;71.54
4528;BME280;62320;51.520;6.818;2022-09-16T16:36:21;100578.72;;;15.83;72.43
4528;BME280;62320;51.520;6.818;2022-09-16T16:41:23;100579.88;;;15.70;75.52
4528;BME280;62320;51.520;6.818;2022-09-16T16:46:25;100586.31;;;15.55;74.81
4528;BME280;62320;51.520;6.818;2022-09-16T16:51:27;100578.81;;;15.40;75.27
4528;BME280;62320;51.520;6.818;2022-09-16T16:56:29;100576.59;;;15.22;75.88
4528;BME280;62320;51.520;6.818;2022-09-16T17:01:30;100567.25;;;15.14;76.36
4528;BME280;62320;51.520;6.818;2022-09-16T17:06:41;100573.63;;;15.00;75.94
4528;BME280;62320;51.520;6.818;2022-09-16T17:12:17;100577.28;;;14.92;76.70
4528;BME280;62320;51.520;6.818;2022-09-16T17:17:19;100583.50;;;14.85;76.23
4528;BME280;62320;51.520;6.818;2022-09-16T17:22:20;100581.09;;;14.76;77.51
4528;BME280;62320;51.520;6.818;2022-09-16T17:27:21;100595.97;;;14.68;76.89
4528;BME280;62320;51.520;6.818;2022-09-16T17:32:24;100596.09;;;14.62;77.35
4528;BME280;62320;51.520;6.818;2022-09-16T17:37:26;100603.97;;;14.59;77.03
4528;BME280;62320;51.520;6.818;2022-09-16T17:42:27;100604.97;;;14.52;78.32
4528;BME280;62320;51.520;6.818;2022-09-16T17:47:28;100612.06;;;14.44;77.73
4528;BME280;62320;51.520;6.818;2022-09-16T17:52:30;100593.22;;;14.29;77.12
4528;BME280;62320;51.520;6.818;2022-09-16T17:57:31;100608.75;;;14.34;77.48
4528;BME280;62320;51.520;6.818;2022-09-16T18:02:34;100612.44;;;14.21;77.82
4528;BME280;62320;51.520;6.818;2022-09-16T18:08:01;100512.25;;;13.51;77.56
4528;BME280;62320;51.520;6.818;2022-09-16T18:13:03;100619.53;;;14.11;78.90
4528;BME280;62320;51.520;6.818;2022-09-16T18:18:05;100616.97;;;14.08;78.18
4528;BME280;62320;51.520;6.818;2022-09-16T18:23:07;100620.50;;;14.04;78.09
4528;BME280;62320;51.520;6.818;2022-09-16T18:28:08;100630.16;;;13.98;78.96
4528;BME280;62320;51.520;6.818;2022-09-16T18:33:10;100591.63;;;13.68;78.58
4528;BME280;62320;51.520;6.818;2022-09-16T18:38:12;100628.59;;;13.88;78.34
4528;BME280;62320;51.520;6.818;2022-09-16T18:43:13;100633.97;;;13.76;78.76
4528;BME280;62320;51.520;6.818;2022-09-16T18:48:14;100643.50;;;13.75;79.47
4528;BME280;62320;51.520;6.818;2022-09-16T18:53:16;100653.13;;;13.69;79.23
4528;BME280;62320;51.520;6.818;2022-09-16T18:58:17;100646.28;;;13.65;79.18
4528;BME280;62320;51.520;6.818;2022-09-16T19:03:18;100630.84;;;13.52;79.02
4528;BME280;62320;51.520;6.818;2022-09-16T19:08:23;100655.97;;;13.53;78.67
4528;BME280;62320;51.520;6.818;2022-09-16T19:13:24;100655.13;;;13.50;78.44
4528;BME280;62320;51.520;6.818;2022-09-16T19:18:26;100660.38;;;13.47;78.81
4528;BME280;62320;51.520;6.818;2022-09-16T19:23:31;100648.38;;;13.37;78.95
4528;BME280;62320;51.520;6.818;2022-09-16T19:28:32;100655.28;;;13.38;78.31
4528;BME280;62320;51.520;6.818;2022-09-16T19:33:35;100647.59;;;13.29;78.60
4528;BME280;62320;51.520;6.818;2022-09-16T19:38:37;100652.81;;;13.30;79.02
4528;BME280;62320;51.520;6.818;2022-09-16T19:43:39;100640.81;;;13.20;78.28
4528;BME280;62320;51.520;6.818;2022-09-16T19:48:43;100625.41;;;13.08;78.76
4528;BME280;62320;51.520;6.818;2022-09-16T19:53:46;100657.31;;;13.16;78.95
4528;BME280;62320;51.520;6.818;2022-09-16T19:58:50;100663.41;;;13.11;78.22
4528;BME280;62320;51.520;6.818;2022-09-16T20:03:52;100669.53;;;13.08;78.91
4528;BME280;62320;51.520;6.818;2022-09-16T20:08:56;100669.59;;;12.99;78.53
4528;BME280;62320;51.520;6.818;2022-09-16T20:14:02;100673.97;;;12.94;79.31
4528;BME280;62320;51.520;6.818;2022-09-16T20:19:08;100673.09;;;12.94;79.15
4528;BME280;62320;51.520;6.818;2022-09-16T20:24:15;100679.19;;;12.91;79.30
4528;BME280;62320;51.520;6.818;2022-09-16T20:29:19;100690.53;;;12.82;79.64
4528;BME280;62320;51.520;6.818;2022-09-16T20:34:20;100707.75;;;12.88;80.30
4528;BME280;62320;51.520;6.818;2022-09-16T20:39:24;100699.13;;;12.87;79.75
4528;BME280;62320;51.520;6.818;2022-09-16T20:44:25;100687.13;;;12.77;80.32
4528;BME280;62320;51.520;6.818;2022-09-16T20:49:27;100719.91;;;12.84;80.91
4528;BME280;62320;51.520;6.818;2022-09-16T20:54:28;100696.75;;;12.66;79.92
4528;BME280;62320;51.520;6.818;2022-09-16T20:59:29;100722.56;;;12.80;81.05
4528;BME280;62320;51.520;6.818;2022-09-16T21:04:31;100711.34;;;12.75;80.42
4528;BME280;62320;51.520;6.818;2022-09-16T21:09:33;100722.56;;;12.80;80.75
4528;BME280;62320;51.520;6.818;2022-09-16T21:14:34;100724.34;;;12.73;81.29
4528;BME280;62320;51.520;6.818;2022-09-16T21:19:36;100721.88;;;12.63;81.07
4528;BME280;62320;51.520;6.818;2022-09-16T21:24:37;100733.88;;;12.70;81.40
4528;BME280;62320;51.520;6.818;2022-09-16T21:29:39;100725.34;;;12.60;81.11
4528;BME280;62320;51.520;6.818;2022-09-16T21:34:40;100731.41;;;12.59;80.68
4528;BME280;62320;51.520;6.818;2022-09-16T21:39:41;100740.88;;;12.63;81.67
4528;BME280;62320;51.520;6.818;2022-09-16T21:44:43;100743.47;;;12.63;81.71
4528;BME280;62320;51.520;6.818;2022-09-16T21:49:44;100736.56;;;12.62;81.82
4528;BME280;62320;51.520;6.818;2022-09-16T21:54:45;100737.44;;;12.60;82.08
4528;BME280;62320;51.520;6.818;2022-09-16T21:59:47;100748.69;;;12.60;81.66
4528;BME280;62320;51.520;6.818;2022-09-16T22:04:48;100745.25;;;12.60;82.77
4528;BME280;62320;51.520;6.818;2022-09-16T22:09:50;100740.97;;;12.53;83.73
4528;BME280;62320;51.520;6.818;2022-09-16T22:14:51;100742.72;;;12.54;82.35
4528;BME280;62320;51.520;6.818;2022-09-16T22:19:52;100747.03;;;12.53;82.58
4528;BME280;62320;51.520;6.818;2022-09-16T22:24:54;100745.28;;;12.52;82.55
4528;BME280;62320;51.520;6.818;2022-09-16T22:29:55;100748.75;;;12.50;84.20
4528;BME280;62320;51.520;6.818;2022-09-16T22:34:57;100734.94;;;12.48;83.79
4528;BME280;62320;51.520;6.818;2022-09-16T22:39:58;100735.84;;;12.44;84.12
4528;BME280;62320;51.520;6.818;2022-09-16T22:44:59;100738.44;;;12.44;84.76
4528;BME280;62320;51.520;6.818;2022-09-16T22:50:01;100723.84;;;12.29;83.90
4528;BME280;62320;51.520;6.818;2022-09-16T22:55:03;100741.09;;;12.38;84.78
4528;BME280;62320;51.520;6.818;2022-09-16T23:00:05;100737.69;;;12.33;84.28
4528;BME280;62320;51.520;6.818;2022-09-16T23:05:06;100711.84;;;12.19;84.46
4528;BME280;62320;51.520;6.818;2022-09-16T23:10:08;100726.50;;;12.25;84.47
4528;BME280;62320;51.520;6.818;2022-09-16T23:15:11;100735.13;;;12.28;84.79
4528;BME280;62320;51.520;6.818;2022-09-16T23:20:14;100722.25;;;12.16;85.43
4528;BME280;62320;51.520;6.818;2022-09-16T23:25:15;100739.47;;;12.20;85.15
4528;BME280;62320;51.520;6.818;2022-09-16T23:30:17;100742.94;;;12.17;85.41
4528;BME280;62320;51.520;6.818;2022-09-16T23:35:19;100739.50;;;12.15;86.31
4528;BME280;62320;51.520;6.818;2022-09-16T23:40:21;100731.78;;;12.12;85.47
4528;BME280;62320;51.520;6.818;2022-09-16T23:45:22;100734.41;;;12.08;85.34
4528;BME280;62320;51.520;6.818;2022-09-16T23:50:24;100728.38;;;12.03;85.63
4528;BME280;62320;51.520;6.818;2022-09-16T23:55:26;100706.84;;;11.90;85.76
